Keystone, South Dakota
Current Conditions -  °F | °C
As of 4:53 PM on Saturday 25 Oct 2014 (Local Time) from KCUT Reporting Station
Clear Clear  
Wind Chill: 64°   Ceiling: Unl
Heat Index: 64°   Visibility: 10mi
Dew Point: 32°   Wind: 5mph
Humidity: 30%   Direction: 180°S
Pressure: 30.06"   Gusts: NA
Location:  43.9°N, 103.42°W
Report Text: KCUT 252253Z AUTO 18004KT 10SM CLR 18/00 A3006 RMK AO2 SLP150 T01780000
Loading
Personal Weather Stations






























Interactive Weather Map New forecast layout! Learn more

10-Day Weather Forecast

Advertisements
Track Severe Weather on mobile